Etusivu
METAR-TAF:

METAR-TAF

Lentoasemat :

Castlegar, Brittiläinen Kolumbia, Kanada

Leveyspiiri: 49-18N, Pituuspiiri: 117-38W, korkeus merenpinnasta: 495 m

Tämänhetkinen sää

Tämä raportti tehtiin 10 tuntia ja 10 minuuttia sitten, kello 01.00 UTC
Tuuli 5 kn pohjoisesta
Lämpötila 12°C
Kosteus 30%
Ilmanpaine 1008 hPa
Näkyvyys: 24.1 km
Hajonneita pilviä 22000 ft:n korkeudessa

METAR: CYCG 070100Z 36005KT 15SM BKN220 12/M05 A2976 RMK CI3 LAST STFD OBS/NEXT071500UTC SLP088 DENSITY ALT 1900FT

Aika: 04:10 (11:10 UTC)

Sääennuste

Tämä raportti tehtiin 10 tuntia ja 32 minuuttia sitten, kello 00.38 UTC
Ennuste voimassa 07. päivästä klo 01 UTC - 07. päivään klo 04 UTC
Tuuli 5 kn etelästä/lounaasta
Näkyvyys: 10 km
Muutamia pilviä 12000 ft:n korkeudessa
Hajanaisia pilviä 24000 ft:n korkeudessa

TAF: CYCG 070038Z 0701/0704 21005KT P6SM FEW120 SCT240 RMK NXT FCST WILL BE ISSUED AT 071445Z

Säähavainnot ja -ennusteet yli 4000 lentoasemalta (METAR- ja TAF-raportit).

Käytössä olevat sääasemat on merkitty karttaan keltaisilla ja punaisilla pisteillä.

Aseta hiiri pisteen päälle nähdäksesi sääaseman nimen.

Klikkaa sitten nähdäksesi säähavainnot ja -ennusteet.

Kartan vaihtaminen: klikkaa mustalla rastilla varustettuja vihreitä pisteitä, niin voit zoomata sisään; viivalla varustettua vihreää pistettä, niin voit zoomata ulos tai vihreitä nuolia, niin pääset viereisille kartoille.


METAR-TAF: